createdAt,value
2022-09-09T00:01:11.414Z,98162.06
2022-09-09T00:04:40.021Z,98164.44
2022-09-09T00:07:50.897Z,98174.28
2022-09-09T00:10:42.901Z,98166.25
2022-09-09T00:13:52.984Z,98172.84
2022-09-09T00:16:48.516Z,98171.19
2022-09-09T00:20:05.554Z,98179.00
2022-09-09T00:23:17.051Z,98174.41
2022-09-09T00:26:12.210Z,98189.47
2022-09-09T00:29:27.430Z,98193.03
2022-09-09T00:32:20.780Z,98191.34
2022-09-09T00:35:27.729Z,98182.94
2022-09-09T00:38:21.623Z,98193.84
2022-09-09T00:41:22.217Z,98205.31
2022-09-09T00:44:32.550Z,98207.66
2022-09-09T00:47:52.685Z,98201.06
2022-09-09T00:51:04.682Z,98203.13
2022-09-09T00:54:13.068Z,98207.19
2022-09-09T00:57:34.995Z,98210.09
2022-09-09T01:00:32.627Z,98222.34
2022-09-09T01:04:00.902Z,98223.03
2022-09-09T01:07:00.140Z,98232.66
2022-09-09T01:10:00.331Z,98238.91
2022-09-09T01:12:54.450Z,98226.41
2022-09-09T01:15:46.622Z,98230.63
2022-09-09T01:18:56.982Z,98239.84
2022-09-09T01:21:52.422Z,98243.22
2022-09-09T01:24:44.938Z,98244.16
2022-09-09T01:27:46.049Z,98241.03
2022-09-09T01:30:37.201Z,98248.94
2022-09-09T01:33:26.792Z,98245.41
2022-09-09T01:36:37.985Z,98247.41
2022-09-09T01:39:27.945Z,98250.41
2022-09-09T01:42:23.604Z,98243.09
2022-09-09T01:45:12.880Z,98248.38
2022-09-09T01:48:03.179Z,98256.63
2022-09-09T01:51:15.041Z,98255.16
2022-09-09T01:54:05.396Z,98254.41
2022-09-09T01:56:58.054Z,98261.75
2022-09-09T01:59:56.575Z,98267.78
2022-09-09T02:02:49.114Z,98273.34
2022-09-09T02:05:51.646Z,98271.81
2022-09-09T02:08:51.401Z,98269.22
2022-09-09T02:11:41.626Z,98267.94
2022-09-09T02:14:41.822Z,98264.56
2022-09-09T02:17:36.265Z,98263.63
2022-09-09T02:20:35.498Z,98273.66
2022-09-09T02:23:25.382Z,98273.88
2022-09-09T02:26:22.325Z,98273.34
2022-09-09T02:29:20.213Z,98281.47
2022-09-09T02:32:13.728Z,98265.09
2022-09-09T02:35:09.781Z,98271.59
2022-09-09T02:38:03.208Z,98275.63
2022-09-09T02:40:54.028Z,98272.16
2022-09-09T02:43:43.121Z,98268.66
2022-09-09T02:46:50.530Z,98274.03
2022-09-09T02:49:40.163Z,98272.75
2022-09-09T02:52:39.283Z,98266.44
2022-09-09T02:55:38.703Z,98278.19
2022-09-09T02:58:30.254Z,98282.38
2022-09-09T03:01:24.058Z,98284.28
2022-09-09T03:04:13.776Z,98284.91
2022-09-09T03:07:03.005Z,98286.22
2022-09-09T03:09:53.302Z,98290.88
2022-09-09T03:12:42.904Z,98295.22
2022-09-09T03:15:33.287Z,98287.28
2022-09-09T03:18:22.770Z,98291.47
2022-09-09T03:21:15.504Z,98299.03
2022-09-09T03:24:05.570Z,98299.31
2022-09-09T03:26:54.996Z,98303.75
2022-09-09T03:29:44.433Z,98304.19
2022-09-09T03:32:36.996Z,98305.75
2022-09-09T03:35:26.498Z,98308.56
2022-09-09T03:38:15.980Z,98317.94
2022-09-09T03:41:05.935Z,98320.31
2022-09-09T03:43:56.668Z,98319.34
2022-09-09T03:46:48.065Z,98319.75
2022-09-09T03:49:37.055Z,98313.31
2022-09-09T03:52:30.236Z,98317.06
2022-09-09T03:55:19.970Z,98323.66
2022-09-09T03:58:10.152Z,98327.28
2022-09-09T04:01:00.716Z,98318.44
2022-09-09T04:03:49.980Z,98333.81
2022-09-09T04:06:39.823Z,98323.19
2022-09-09T04:09:29.526Z,98320.31
2022-09-09T04:12:18.805Z,98326.19
2022-09-09T04:15:08.961Z,98330.06
2022-09-09T04:17:58.838Z,98331.88
2022-09-09T04:20:50.479Z,98329.03
2022-09-09T04:23:45.128Z,98325.69
2022-09-09T04:26:35.750Z,98338.28
2022-09-09T04:29:24.669Z,98335.63
2022-09-09T04:32:13.968Z,98344.34
2022-09-09T04:35:06.154Z,98334.53
2022-09-09T04:37:56.417Z,98336.09
2022-09-09T04:40:49.859Z,98336.41
2022-09-09T04:43:39.974Z,98345.84
2022-09-09T04:46:38.700Z,98346.03
2022-09-09T04:49:28.125Z,98343.97
2022-09-09T04:52:20.799Z,98338.25
2022-09-09T04:55:13.759Z,98348.75
2022-09-09T04:58:07.364Z,98339.91
2022-09-09T05:00:56.735Z,98340.53
2022-09-09T05:03:49.765Z,98342.84
2022-09-09T05:06:42.554Z,98339.94
2022-09-09T05:09:33.824Z,98351.03
2022-09-09T05:12:26.246Z,98343.44
2022-09-09T05:15:15.370Z,98345.50
2022-09-09T05:18:05.030Z,98348.50
2022-09-09T05:20:54.526Z,98340.41
2022-09-09T05:23:44.142Z,98342.44
2022-09-09T05:26:34.437Z,98334.19
2022-09-09T05:29:24.555Z,98339.22
2022-09-09T05:32:15.556Z,98340.03
2022-09-09T05:35:06.962Z,98332.25
2022-09-09T05:38:01.165Z,98333.97
2022-09-09T05:40:51.441Z,98331.56
2022-09-09T05:43:41.197Z,98324.13
2022-09-09T05:46:30.472Z,98331.47
2022-09-09T05:49:20.729Z,98326.50
2022-09-09T05:52:11.161Z,98321.28
2022-09-09T05:55:01.444Z,98324.44
2022-09-09T05:57:51.751Z,98320.03
2022-09-09T06:00:40.948Z,98314.25
2022-09-09T06:03:30.129Z,98310.16
2022-09-09T06:06:25.848Z,98312.06
2022-09-09T06:09:17.286Z,98316.53
2022-09-09T06:12:06.572Z,98309.09
2022-09-09T06:14:57.850Z,98309.50
2022-09-09T06:17:47.540Z,98309.06
2022-09-09T06:20:36.652Z,98302.69
2022-09-09T06:23:25.962Z,98297.84
2022-09-09T06:26:21.992Z,98294.88
2022-09-09T06:29:12.858Z,98287.50
2022-09-09T06:32:04.660Z,98286.50
2022-09-09T06:34:53.891Z,98284.56
2022-09-09T06:37:47.132Z,98289.19
2022-09-09T06:40:39.456Z,98280.53
2022-09-09T06:43:30.290Z,98277.88
2022-09-09T06:46:25.079Z,98277.53
2022-09-09T06:49:14.269Z,98270.50
2022-09-09T06:52:04.061Z,98265.50
2022-09-09T06:54:53.791Z,98269.66
2022-09-09T06:57:44.210Z,98261.16
2022-09-09T07:00:40.789Z,98262.03
2022-09-09T07:03:30.040Z,98255.47
2022-09-09T07:06:20.934Z,98249.63
2022-09-09T07:09:11.829Z,98244.13
2022-09-09T07:12:03.326Z,98248.44
2022-09-09T07:14:58.461Z,98246.84
2022-09-09T07:17:48.590Z,98230.44
2022-09-09T07:20:37.950Z,98226.06
2022-09-09T07:23:27.921Z,98212.66
2022-09-09T07:26:21.631Z,98210.97
2022-09-09T07:29:10.861Z,98207.28
2022-09-09T07:32:03.880Z,98205.59
2022-09-09T07:34:57.063Z,98202.28
2022-09-09T07:37:50.834Z,98195.47
2022-09-09T07:40:42.058Z,98193.28
2022-09-09T07:43:34.198Z,98189.41
2022-09-09T07:46:24.645Z,98182.19
2022-09-09T07:49:14.686Z,98169.97
2022-09-09T07:52:05.390Z,98168.31
2022-09-09T07:54:55.291Z,98163.44
2022-09-09T07:57:46.501Z,98162.72
2022-09-09T08:00:37.197Z,98159.03
2022-09-09T08:03:27.256Z,98145.88
2022-09-09T08:06:16.449Z,98140.22
2022-09-09T08:09:06.331Z,98131.16
2022-09-09T08:11:55.642Z,98137.97
2022-09-09T08:14:46.635Z,98127.50
2022-09-09T08:17:35.827Z,98121.94
2022-09-09T08:20:27.946Z,98113.22
2022-09-09T08:23:17.088Z,98109.53
2022-09-09T08:26:11.463Z,98109.47
2022-09-09T08:29:02.080Z,98105.47
2022-09-09T08:31:56.572Z,98108.63
2022-09-09T08:34:46.767Z,98102.25
2022-09-09T08:37:42.354Z,98090.25
2022-09-09T08:40:36.208Z,98092.50
2022-09-09T08:43:26.453Z,98079.81
2022-09-09T08:46:36.296Z,98084.59
2022-09-09T08:49:37.430Z,98079.69
2022-09-09T08:52:29.948Z,98067.28
2022-09-09T08:55:32.035Z,98050.56
2022-09-09T08:58:31.630Z,98052.88
2022-09-09T09:01:44.315Z,98047.88
2022-09-09T09:04:41.601Z,98037.91
2022-09-09T09:07:51.458Z,98042.38
2022-09-09T09:10:53.351Z,98041.06
2022-09-09T09:13:53.571Z,98036.06
2022-09-09T09:17:00.612Z,98032.66
2022-09-09T09:19:51.753Z,98023.81
2022-09-09T09:22:49.829Z,98014.94
2022-09-09T09:25:43.456Z,98015.13
2022-09-09T09:28:34.814Z,98015.13
2022-09-09T09:31:31.563Z,98011.31
2022-09-09T09:34:28.308Z,97998.00
2022-09-09T09:37:21.744Z,97990.16
2022-09-09T09:40:11.995Z,97991.34
2022-09-09T09:43:03.128Z,97980.59
2022-09-09T09:46:07.323Z,97974.34
2022-09-09T09:49:07.638Z,97971.75
2022-09-09T09:52:02.157Z,97968.72
2022-09-09T09:54:54.145Z,97977.06
2022-09-09T09:57:43.284Z,97967.94
2022-09-09T10:00:38.028Z,97967.00
2022-09-09T10:03:33.006Z,97974.03
2022-09-09T10:06:36.810Z,97962.72
2022-09-09T10:09:30.540Z,97958.41
2022-09-09T10:12:26.967Z,97951.03
2022-09-09T10:15:41.926Z,97942.47
2022-09-09T10:18:40.295Z,97952.34
2022-09-09T10:21:57.491Z,97944.53
2022-09-09T10:25:10.073Z,97927.88
2022-09-09T10:28:05.444Z,97930.75
2022-09-09T10:30:59.312Z,97931.88
2022-09-09T10:33:49.322Z,97936.25
2022-09-09T10:36:44.257Z,97943.59
2022-09-09T10:39:42.267Z,97963.94
2022-09-09T10:42:34.557Z,97954.59
2022-09-09T10:45:36.345Z,97928.03
2022-09-09T10:48:33.733Z,97939.13
2022-09-09T10:51:31.273Z,97961.06
2022-09-09T10:54:41.602Z,97962.06
2022-09-09T10:57:41.295Z,97962.97
2022-09-09T11:00:53.763Z,97964.97
2022-09-09T11:03:46.161Z,97954.97
2022-09-09T11:06:41.217Z,97948.97
2022-09-09T11:09:33.535Z,97943.59
2022-09-09T11:12:26.151Z,97949.16
2022-09-09T11:15:19.748Z,97938.56
2022-09-09T11:18:11.842Z,97940.63
2022-09-09T11:21:02.910Z,97941.06
2022-09-09T11:23:57.560Z,97935.06
2022-09-09T11:27:09.580Z,97940.38
2022-09-09T11:30:32.033Z,97941.69
2022-09-09T11:33:37.814Z,97936.56
2022-09-09T11:36:33.250Z,97937.88
2022-09-09T11:39:32.162Z,97942.53
2022-09-09T11:42:23.438Z,97937.06
2022-09-09T11:45:32.639Z,97932.50
2022-09-09T11:48:36.167Z,97929.44
2022-09-09T11:51:27.654Z,97913.56
2022-09-09T11:54:37.334Z,97924.00
2022-09-09T11:57:56.468Z,97930.53
2022-09-09T12:01:14.976Z,97933.94
2022-09-09T12:04:24.496Z,97923.28
2022-09-09T12:07:13.452Z,97922.50
2022-09-09T12:10:23.084Z,97917.50
2022-09-09T12:13:23.935Z,97924.03
2022-09-09T12:16:30.946Z,97919.09
2022-09-09T12:19:26.914Z,97920.50
2022-09-09T12:22:25.629Z,97921.50
2022-09-09T12:25:32.207Z,97917.50
2022-09-09T12:28:24.395Z,97911.81
2022-09-09T12:31:26.343Z,97918.00
2022-09-09T12:34:19.496Z,97919.41
2022-09-09T12:37:20.560Z,97916.78
2022-09-09T12:40:23.981Z,97913.81
2022-09-09T12:43:23.340Z,97909.44
2022-09-09T12:46:19.589Z,97905.28
2022-09-09T12:49:27.100Z,97909.84
2022-09-09T12:52:23.237Z,97904.50
2022-09-09T12:55:20.347Z,97895.91
2022-09-09T12:58:09.940Z,97897.00
2022-09-09T13:00:59.389Z,97900.56
2022-09-09T13:03:49.925Z,97896.06
2022-09-09T13:06:38.760Z,97892.06
2022-09-09T13:09:28.553Z,97900.97
2022-09-09T13:12:27.024Z,97889.72
2022-09-09T13:15:30.613Z,97896.88
2022-09-09T13:18:23.889Z,97898.09
2022-09-09T13:21:13.549Z,97894.06
2022-09-09T13:24:05.225Z,97906.50
2022-09-09T13:27:02.953Z,97897.97
2022-09-09T13:29:59.368Z,97902.00
2022-09-09T13:32:49.126Z,97906.22
2022-09-09T13:35:48.341Z,97897.13
2022-09-09T13:38:56.861Z,97890.84
2022-09-09T13:41:46.343Z,97893.31
2022-09-09T13:44:41.415Z,97900.88
2022-09-09T13:47:33.905Z,97900.03
2022-09-09T13:50:25.120Z,97903.53
2022-09-09T13:53:13.968Z,97897.00
2022-09-09T13:56:03.870Z,97898.38
2022-09-09T13:58:52.851Z,97898.16
2022-09-09T14:01:44.522Z,97895.09
2022-09-09T14:04:33.421Z,97898.47
2022-09-09T14:07:23.132Z,97897.84
2022-09-09T14:10:12.336Z,97904.81
2022-09-09T14:13:01.782Z,97905.13
2022-09-09T14:15:51.983Z,97905.13
2022-09-09T14:18:41.640Z,97908.47
2022-09-09T14:21:30.974Z,97905.03
2022-09-09T14:24:20.362Z,97915.50
2022-09-09T14:27:09.933Z,97909.94
2022-09-09T14:30:00.390Z,97915.28
2022-09-09T14:32:49.361Z,97917.72
2022-09-09T14:35:39.193Z,97926.28
2022-09-09T14:38:31.639Z,97923.91
2022-09-09T14:41:22.290Z,97932.56
2022-09-09T14:44:12.615Z,97929.28
2022-09-09T14:47:02.249Z,97925.19
2022-09-09T14:49:52.359Z,97918.91
2022-09-09T14:52:41.807Z,97925.94
2022-09-09T14:55:31.778Z,97926.94
2022-09-09T14:58:21.645Z,97924.28
2022-09-09T15:01:14.762Z,97923.75
2022-09-09T15:04:06.425Z,97930.44
2022-09-09T15:06:57.432Z,97939.13
2022-09-09T15:09:50.308Z,97939.34
2022-09-09T15:12:58.027Z,97934.59
2022-09-09T15:15:33.369Z,97937.34
2022-09-09T15:18:05.715Z,97942.81
2022-09-09T15:20:41.188Z,97947.69
2022-09-09T15:23:11.077Z,97947.84
2022-09-09T15:25:40.720Z,97947.00
2022-09-09T15:28:09.196Z,97948.44
2022-09-09T15:30:38.019Z,97947.31
2022-09-09T15:33:12.911Z,97946.75
2022-09-09T15:35:44.489Z,97949.03
2022-09-09T15:38:17.580Z,97948.34
2022-09-09T15:40:48.778Z,97947.34
2022-09-09T15:43:20.292Z,97952.34
2022-09-09T15:45:53.654Z,97942.03
2022-09-09T15:48:26.452Z,97946.63
2022-09-09T15:51:10.900Z,97946.13
2022-09-09T15:53:57.905Z,97941.25
2022-09-09T15:56:27.247Z,97937.75
2022-09-09T15:58:57.703Z,97939.25
2022-09-09T16:01:27.101Z,97940.41
2022-09-09T16:03:55.967Z,97945.56
2022-09-09T16:06:26.129Z,97940.69
2022-09-09T16:08:55.431Z,97935.94
2022-09-09T16:11:25.807Z,97933.53
2022-09-09T16:13:56.250Z,97941.22
2022-09-09T16:16:27.790Z,97934.09
2022-09-09T16:18:58.280Z,97933.28
2022-09-09T16:21:31.188Z,97933.41
2022-09-09T16:24:01.961Z,97935.69
2022-09-09T16:26:31.964Z,97934.28
2022-09-09T16:29:01.886Z,97930.38
2022-09-09T16:31:31.151Z,97929.25
2022-09-09T16:34:01.096Z,97930.63
2022-09-09T16:36:34.618Z,97938.63
2022-09-09T16:39:07.677Z,97931.38
2022-09-09T16:41:38.265Z,97934.00
2022-09-09T16:44:08.375Z,97932.63
2022-09-09T16:46:39.328Z,97936.53
2022-09-09T16:49:10.074Z,97933.47
2022-09-09T16:51:42.294Z,97929.84
2022-09-09T16:54:11.762Z,97935.72
2022-09-09T16:56:45.467Z,97932.91
2022-09-09T16:59:20.222Z,97938.50
2022-09-09T17:01:53.965Z,97936.25
2022-09-09T17:04:26.408Z,97945.50
2022-09-09T17:06:56.181Z,97941.03
2022-09-09T17:09:31.767Z,97936.00
2022-09-09T17:12:03.009Z,97939.34
2022-09-09T17:14:33.517Z,97939.91
2022-09-09T17:17:19.294Z,97944.63
2022-09-09T17:19:52.313Z,97946.28
2022-09-09T17:22:22.277Z,97944.91
2022-09-09T17:24:51.395Z,97941.00
2022-09-09T17:27:19.987Z,97933.91
2022-09-09T17:29:49.219Z,97941.72
2022-09-09T17:32:18.084Z,97942.09
2022-09-09T17:34:50.083Z,97940.75
2022-09-09T17:37:19.037Z,97952.31
2022-09-09T17:39:48.208Z,97952.31
2022-09-09T17:42:17.915Z,97945.59
2022-09-09T17:44:46.752Z,97954.81
2022-09-09T17:47:15.870Z,97952.56
2022-09-09T17:49:45.265Z,97953.81
2022-09-09T17:52:13.849Z,97960.81
2022-09-09T17:54:43.812Z,97949.38
2022-09-09T17:57:12.934Z,97952.72
2022-09-09T17:59:43.016Z,97951.31
2022-09-09T18:02:13.892Z,97953.81
2022-09-09T18:04:43.775Z,97961.22
2022-09-09T18:07:12.673Z,97954.38
2022-09-09T18:09:41.790Z,97947.13
2022-09-09T18:12:13.293Z,97957.03
2022-09-09T18:14:42.270Z,97954.78
2022-09-09T18:17:12.040Z,97962.19
2022-09-09T18:19:40.931Z,97967.06
2022-09-09T18:22:09.647Z,97969.16
2022-09-09T18:24:38.925Z,97971.63
2022-09-09T18:27:07.878Z,97973.03
2022-09-09T18:29:36.571Z,97967.75
2022-09-09T18:32:05.483Z,97973.03
2022-09-09T18:34:34.522Z,97970.41
2022-09-09T18:37:03.060Z,97974.84
2022-09-09T18:39:32.405Z,97973.88
2022-09-09T18:42:02.473Z,97976.41
2022-09-09T18:44:33.170Z,97973.31
2022-09-09T18:47:02.519Z,97973.31
2022-09-09T18:49:31.142Z,97974.84
2022-09-09T18:52:00.332Z,97974.44
2022-09-09T18:54:31.273Z,97977.78
2022-09-09T18:57:01.790Z,97983.06
2022-09-09T18:59:30.867Z,97978.06
2022-09-09T19:01:59.542Z,97996.47
2022-09-09T19:04:28.695Z,97992.13
2022-09-09T19:07:00.560Z,97991.56
2022-09-09T19:09:32.146Z,97990.34
2022-09-09T19:12:01.894Z,97984.88
2022-09-09T19:14:31.392Z,97991.16
2022-09-09T19:17:00.201Z,97994.94
2022-09-09T19:19:30.422Z,97993.25
2022-09-09T19:21:59.528Z,97996.75
2022-09-09T19:24:29.719Z,97996.59
2022-09-09T19:27:07.592Z,97995.34
2022-09-09T19:29:37.709Z,98001.31
2022-09-09T19:34:55.579Z,97995.88
2022-09-09T19:37:24.176Z,98000.97
2022-09-09T19:39:53.282Z,98010.59
2022-09-09T19:42:22.665Z,98007.78
2022-09-09T19:44:51.893Z,98009.22
2022-09-09T19:47:21.035Z,98013.44
2022-09-09T19:49:51.452Z,98002.31
2022-09-09T19:52:20.214Z,98008.97
2022-09-09T19:54:48.995Z,97998.00
2022-09-09T19:57:17.711Z,98000.06
2022-09-09T19:59:46.479Z,97998.25
2022-09-09T20:02:16.598Z,98003.94
2022-09-09T20:04:45.590Z,97998.38
2022-09-09T20:07:15.826Z,98004.78
2022-09-09T20:09:44.865Z,98008.38
2022-09-09T20:12:13.235Z,98003.59
2022-09-09T20:14:41.837Z,98006.66
2022-09-09T20:17:11.269Z,98007.75
2022-09-09T20:19:40.795Z,98015.97
2022-09-09T20:22:09.983Z,98008.34
2022-09-09T20:24:38.683Z,98010.00
2022-09-09T20:27:08.030Z,98007.47
2022-09-09T20:29:37.648Z,98016.94
2022-09-09T20:32:06.889Z,98007.38
2022-09-09T20:34:36.013Z,98009.75
2022-09-09T20:37:05.667Z,98018.34
2022-09-09T20:39:34.331Z,98012.22
2022-09-09T20:42:04.294Z,98009.28
2022-09-09T20:44:33.127Z,98010.59
2022-09-09T20:47:07.287Z,98011.94
2022-09-09T20:49:38.930Z,98006.31
2022-09-09T20:52:08.118Z,98007.78
2022-09-09T20:54:38.622Z,98009.19
2022-09-09T20:57:08.305Z,98011.78
2022-09-09T20:59:36.873Z,98009.19
2022-09-09T21:02:05.983Z,98011.94
2022-09-09T21:04:34.875Z,98015.84
2022-09-09T21:07:05.248Z,98013.75
2022-09-09T21:09:33.842Z,98012.47
2022-09-09T21:12:02.698Z,98008.28
2022-09-09T21:14:32.280Z,98014.75
2022-09-09T21:19:43.767Z,98009.97
2022-09-09T21:22:12.867Z,98011.88
2022-09-09T21:24:41.705Z,98007.72
2022-09-09T21:27:10.437Z,98000.25
2022-09-09T21:29:39.594Z,98003.69
2022-09-09T21:32:08.186Z,98011.78
2022-09-09T21:34:36.967Z,98008.59
2022-09-09T21:37:05.554Z,98011.16
2022-09-09T21:39:35.202Z,98011.75
2022-09-09T21:42:03.882Z,98016.44
2022-09-09T21:44:32.638Z,98020.88
2022-09-09T21:47:01.417Z,98022.00
2022-09-09T21:49:30.122Z,98009.22
2022-09-09T21:51:59.595Z,98004.72
2022-09-09T21:54:30.847Z,98012.94
2022-09-09T21:56:59.577Z,98012.50
2022-09-09T21:59:29.065Z,98010.19
2022-09-09T22:01:58.230Z,98012.84
2022-09-09T22:04:26.884Z,98014.84
2022-09-09T22:06:55.627Z,98033.94
2022-09-09T22:09:24.527Z,98020.31
2022-09-09T22:11:53.687Z,98024.50
2022-09-09T22:14:22.498Z,98024.16
2022-09-09T22:16:51.195Z,98032.88
2022-09-09T22:19:19.658Z,98020.66
2022-09-09T22:21:48.428Z,98028.47
2022-09-09T22:24:17.149Z,98033.38
2022-09-09T22:26:46.029Z,98034.75
2022-09-09T22:29:14.892Z,98033.81
2022-09-09T22:31:44.424Z,98032.81
2022-09-09T22:34:13.247Z,98031.72
2022-09-09T22:36:42.079Z,98037.28
2022-09-09T22:39:10.925Z,98025.88
2022-09-09T22:41:40.355Z,98033.91
2022-09-09T22:44:08.918Z,98039.75
2022-09-09T22:46:39.740Z,98039.44
2022-09-09T22:49:08.677Z,98041.59
2022-09-09T22:51:37.170Z,98048.28
2022-09-09T22:54:06.155Z,98046.59
2022-09-09T22:56:34.864Z,98053.00
2022-09-09T22:59:04.066Z,98054.53
2022-09-09T23:01:33.169Z,98058.72
2022-09-09T23:04:03.739Z,98059.81
2022-09-09T23:06:32.752Z,98065.06
2022-09-09T23:09:02.443Z,98068.69
2022-09-09T23:11:33.344Z,98061.13
2022-09-09T23:14:02.945Z,98070.19
2022-09-09T23:16:34.234Z,98073.09
2022-09-09T23:19:03.974Z,98079.69
2022-09-09T23:21:33.026Z,98081.38
2022-09-09T23:24:01.978Z,98085.59
2022-09-09T23:26:30.683Z,98085.84
2022-09-09T23:29:00.142Z,98083.47
2022-09-09T23:31:30.256Z,98086.06
2022-09-09T23:34:00.303Z,98089.28
2022-09-09T23:36:32.490Z,98090.47
2022-09-09T23:39:03.775Z,98091.31
2022-09-09T23:41:33.152Z,98094.88
2022-09-09T23:44:03.125Z,98093.59
2022-09-09T23:46:32.850Z,98095.38
2022-09-09T23:49:03.462Z,98096.59
2022-09-09T23:51:33.187Z,98094.34
2022-09-09T23:54:02.572Z,98092.34
2022-09-09T23:56:33.387Z,98103.19
2022-09-09T23:59:02.514Z,98098.09
